sensor_id;sensor_type;location;lat;lon;timestamp;temperature;humidity
12049;DHT22;6085;49.452;8.502;2022-10-03T00:07:34;10.80;99.90
12049;DHT22;6085;49.452;8.502;2022-10-03T00:11:45;10.80;99.90
12049;DHT22;6085;49.452;8.502;2022-10-03T00:16:04;10.90;99.90
12049;DHT22;6085;49.452;8.502;2022-10-03T00:20:27;10.90;99.90
12049;DHT22;6085;49.452;8.502;2022-10-03T00:24:43;10.80;99.90
12049;DHT22;6085;49.452;8.502;2022-10-03T00:28:59;10.80;99.90
12049;DHT22;6085;49.452;8.502;2022-10-03T00:33:13;10.80;99.90
12049;DHT22;6085;49.452;8.502;2022-10-03T00:37:23;10.90;99.90
12049;DHT22;6085;49.452;8.502;2022-10-03T00:41:38;10.80;99.90
12049;DHT22;6085;49.452;8.502;2022-10-03T00:50:21;10.80;99.90
12049;DHT22;6085;49.452;8.502;2022-10-03T00:54:39;10.80;99.90
12049;DHT22;6085;49.452;8.502;2022-10-03T00:58:57;10.80;99.90
12049;DHT22;6085;49.452;8.502;2022-10-03T01:03:31;10.60;99.90
12049;DHT22;6085;49.452;8.502;2022-10-03T01:07:57;10.50;99.90
12049;DHT22;6085;49.452;8.502;2022-10-03T01:12:13;10.30;99.90
12049;DHT22;6085;49.452;8.502;2022-10-03T01:16:28;10.20;99.90
12049;DHT22;6085;49.452;8.502;2022-10-03T01:20:45;10.00;99.90
12049;DHT22;6085;49.452;8.502;2022-10-03T01:24:53;9.90;99.90
12049;DHT22;6085;49.452;8.502;2022-10-03T01:29:02;9.70;99.90
12049;DHT22;6085;49.452;8.502;2022-10-03T01:33:29;9.60;99.90
12049;DHT22;6085;49.452;8.502;2022-10-03T01:37:38;9.50;99.90
12049;DHT22;6085;49.452;8.502;2022-10-03T01:41:48;9.30;99.90
12049;DHT22;6085;49.452;8.502;2022-10-03T01:46:02;9.20;99.90
12049;DHT22;6085;49.452;8.502;2022-10-03T01:50:15;9.20;99.90
12049;DHT22;6085;49.452;8.502;2022-10-03T01:54:24;9.10;99.90
12049;DHT22;6085;49.452;8.502;2022-10-03T01:58:36;9.00;99.90
12049;DHT22;6085;49.452;8.502;2022-10-03T02:02:46;8.90;99.90
12049;DHT22;6085;49.452;8.502;2022-10-03T02:06:53;8.80;99.90
12049;DHT22;6085;49.452;8.502;2022-10-03T02:11:02;8.80;99.90
12049;DHT22;6085;49.452;8.502;2022-10-03T02:15:11;8.70;99.90
12049;DHT22;6085;49.452;8.502;2022-10-03T02:19:23;8.60;99.90
12049;DHT22;6085;49.452;8.502;2022-10-03T02:23:38;8.50;99.90
12049;DHT22;6085;49.452;8.502;2022-10-03T02:42:21;8.50;99.90
12049;DHT22;6085;49.452;8.502;2022-10-03T02:51:34;8.40;99.90
12049;DHT22;6085;49.452;8.502;2022-10-03T03:00:37;8.20;99.90
12049;DHT22;6085;49.452;8.502;2022-10-03T03:05:10;8.20;99.90
12049;DHT22;6085;49.452;8.502;2022-10-03T03:09:46;8.10;99.90
12049;DHT22;6085;49.452;8.502;2022-10-03T03:14:36;8.10;99.90
12049;DHT22;6085;49.452;8.502;2022-10-03T03:18:45;8.10;99.90
12049;DHT22;6085;49.452;8.502;2022-10-03T03:23:05;8.10;99.90
12049;DHT22;6085;49.452;8.502;2022-10-03T03:27:31;8.00;99.90
12049;DHT22;6085;49.452;8.502;2022-10-03T03:31:45;8.00;99.90
12049;DHT22;6085;49.452;8.502;2022-10-03T03:35:57;8.00;99.90
12049;DHT22;6085;49.452;8.502;2022-10-03T03:40:27;7.90;99.90
12049;DHT22;6085;49.452;8.502;2022-10-03T03:44:49;7.80;99.90
12049;DHT22;6085;49.452;8.502;2022-10-03T03:49:12;7.70;99.90
12049;DHT22;6085;49.452;8.502;2022-10-03T03:58:07;7.60;99.90
12049;DHT22;6085;49.452;8.502;2022-10-03T04:02:24;7.60;99.90
12049;DHT22;6085;49.452;8.502;2022-10-03T04:06:43;7.50;99.90
12049;DHT22;6085;49.452;8.502;2022-10-03T04:10:56;7.40;99.90
12049;DHT22;6085;49.452;8.502;2022-10-03T04:15:29;7.40;99.90
12049;DHT22;6085;49.452;8.502;2022-10-03T04:19:47;7.40;99.90
12049;DHT22;6085;49.452;8.502;2022-10-03T04:24:16;7.30;99.90
12049;DHT22;6085;49.452;8.502;2022-10-03T04:28:50;7.30;99.90
12049;DHT22;6085;49.452;8.502;2022-10-03T04:33:12;7.30;99.90
12049;DHT22;6085;49.452;8.502;2022-10-03T04:37:20;7.30;99.90
12049;DHT22;6085;49.452;8.502;2022-10-03T04:41:34;7.30;99.90
12049;DHT22;6085;49.452;8.502;2022-10-03T04:45:53;7.20;99.90
12049;DHT22;6085;49.452;8.502;2022-10-03T04:50:02;7.10;99.90
12049;DHT22;6085;49.452;8.502;2022-10-03T04:54:18;7.00;99.90
12049;DHT22;6085;49.452;8.502;2022-10-03T04:58:31;7.00;99.90
12049;DHT22;6085;49.452;8.502;2022-10-03T05:02:48;7.00;99.90
12049;DHT22;6085;49.452;8.502;2022-10-03T05:07:00;7.00;99.90
12049;DHT22;6085;49.452;8.502;2022-10-03T05:11:17;7.00;99.90
12049;DHT22;6085;49.452;8.502;2022-10-03T05:15:24;6.90;99.90
12049;DHT22;6085;49.452;8.502;2022-10-03T05:19:41;6.90;99.90
12049;DHT22;6085;49.452;8.502;2022-10-03T05:23:53;6.80;99.90
12049;DHT22;6085;49.452;8.502;2022-10-03T05:28:10;6.80;99.90
12049;DHT22;6085;49.452;8.502;2022-10-03T05:32:24;6.90;99.90
12049;DHT22;6085;49.452;8.502;2022-10-03T05:36:32;6.90;99.90
12049;DHT22;6085;49.452;8.502;2022-10-03T05:40:39;6.90;99.90
12049;DHT22;6085;49.452;8.502;2022-10-03T05:44:44;6.90;99.90
12049;DHT22;6085;49.452;8.502;2022-10-03T05:48:50;6.90;99.90
12049;DHT22;6085;49.452;8.502;2022-10-03T05:53:01;7.00;99.90
12049;DHT22;6085;49.452;8.502;2022-10-03T06:02:07;7.10;99.90
12049;DHT22;6085;49.452;8.502;2022-10-03T06:06:19;7.30;99.90
12049;DHT22;6085;49.452;8.502;2022-10-03T06:10:45;7.50;99.90
12049;DHT22;6085;49.452;8.502;2022-10-03T06:19:46;7.70;99.90
12049;DHT22;6085;49.452;8.502;2022-10-03T06:28:46;7.80;99.90
12049;DHT22;6085;49.452;8.502;2022-10-03T06:33:37;7.90;99.90
12049;DHT22;6085;49.452;8.502;2022-10-03T06:43:04;8.50;99.90
12049;DHT22;6085;49.452;8.502;2022-10-03T06:47:20;8.80;99.90
12049;DHT22;6085;49.452;8.502;2022-10-03T06:52:15;9.20;99.90
12049;DHT22;6085;49.452;8.502;2022-10-03T06:56:44;9.60;99.90
12049;DHT22;6085;49.452;8.502;2022-10-03T07:01:01;10.10;99.90
12049;DHT22;6085;49.452;8.502;2022-10-03T07:10:09;12.10;99.90
12049;DHT22;6085;49.452;8.502;2022-10-03T07:14:30;12.10;99.90
12049;DHT22;6085;49.452;8.502;2022-10-03T07:19:21;12.00;99.90
12049;DHT22;6085;49.452;8.502;2022-10-03T07:23:55;11.80;99.90
12049;DHT22;6085;49.452;8.502;2022-10-03T07:28:23;12.00;99.90
12049;DHT22;6085;49.452;8.502;2022-10-03T07:32:51;12.30;99.90
12049;DHT22;6085;49.452;8.502;2022-10-03T07:37:15;12.40;99.90
12049;DHT22;6085;49.452;8.502;2022-10-03T07:42:16;12.70;99.90
12049;DHT22;6085;49.452;8.502;2022-10-03T07:51:11;13.60;99.90
12049;DHT22;6085;49.452;8.502;2022-10-03T07:55:27;15.30;99.90
12049;DHT22;6085;49.452;8.502;2022-10-03T07:59:53;15.50;99.90
12049;DHT22;6085;49.452;8.502;2022-10-03T08:04:35;17.70;99.90
12049;DHT22;6085;49.452;8.502;2022-10-03T08:09:02;20.30;99.90
12049;DHT22;6085;49.452;8.502;2022-10-03T08:13:23;22.50;99.90
12049;DHT22;6085;49.452;8.502;2022-10-03T08:22:24;23.90;99.90
12049;DHT22;6085;49.452;8.502;2022-10-03T08:26:47;24.40;99.90
12049;DHT22;6085;49.452;8.502;2022-10-03T08:40:20;27.30;99.90
12049;DHT22;6085;49.452;8.502;2022-10-03T08:45:02;27.00;99.90
12049;DHT22;6085;49.452;8.502;2022-10-03T08:49:35;26.90;99.90
12049;DHT22;6085;49.452;8.502;2022-10-03T08:54:18;27.90;99.90
12049;DHT22;6085;49.452;8.502;2022-10-03T08:58:53;29.00;98.60
12049;DHT22;6085;49.452;8.502;2022-10-03T09:03:52;29.80;95.90
12049;DHT22;6085;49.452;8.502;2022-10-03T09:08:44;28.30;95.50
12049;DHT22;6085;49.452;8.502;2022-10-03T09:22:41;21.10;99.90
12049;DHT22;6085;49.452;8.502;2022-10-03T09:31:59;22.50;99.90
12049;DHT22;6085;49.452;8.502;2022-10-03T09:45:34;22.90;99.90
12049;DHT22;6085;49.452;8.502;2022-10-03T09:54:48;20.60;99.90
12049;DHT22;6085;49.452;8.502;2022-10-03T09:59:17;19.80;99.90
12049;DHT22;6085;49.452;8.502;2022-10-03T10:03:49;19.30;99.90
12049;DHT22;6085;49.452;8.502;2022-10-03T10:08:35;19.00;99.90
12049;DHT22;6085;49.452;8.502;2022-10-03T10:12:55;18.30;99.90
12049;DHT22;6085;49.452;8.502;2022-10-03T10:17:36;18.30;99.90
12049;DHT22;6085;49.452;8.502;2022-10-03T10:22:13;17.20;99.90
12049;DHT22;6085;49.452;8.502;2022-10-03T10:26:59;16.30;99.90
12049;DHT22;6085;49.452;8.502;2022-10-03T10:36:09;17.30;99.90
12049;DHT22;6085;49.452;8.502;2022-10-03T10:41:03;17.50;99.90
12049;DHT22;6085;49.452;8.502;2022-10-03T10:45:23;17.30;99.90
12049;DHT22;6085;49.452;8.502;2022-10-03T10:50:00;17.10;99.90
12049;DHT22;6085;49.452;8.502;2022-10-03T10:59:22;16.60;99.90
12049;DHT22;6085;49.452;8.502;2022-10-03T11:03:57;17.10;99.90
12049;DHT22;6085;49.452;8.502;2022-10-03T11:13:12;19.40;99.90
12049;DHT22;6085;49.452;8.502;2022-10-03T11:17:43;19.20;99.90
12049;DHT22;6085;49.452;8.502;2022-10-03T11:27:11;17.50;99.90
12049;DHT22;6085;49.452;8.502;2022-10-03T11:40:58;17.70;99.90
12049;DHT22;6085;49.452;8.502;2022-10-03T11:45:03;18.20;99.90
12049;DHT22;6085;49.452;8.502;2022-10-03T11:49:14;18.20;99.90
12049;DHT22;6085;49.452;8.502;2022-10-03T11:53:40;18.20;99.90
12049;DHT22;6085;49.452;8.502;2022-10-03T11:57:52;17.90;99.90
12049;DHT22;6085;49.452;8.502;2022-10-03T12:02:13;17.70;99.90
12049;DHT22;6085;49.452;8.502;2022-10-03T12:06:27;17.90;99.90
12049;DHT22;6085;49.452;8.502;2022-10-03T12:10:56;18.10;99.90
12049;DHT22;6085;49.452;8.502;2022-10-03T12:15:22;18.30;99.90
12049;DHT22;6085;49.452;8.502;2022-10-03T12:19:29;18.30;99.90
12049;DHT22;6085;49.452;8.502;2022-10-03T12:23:48;18.60;99.90
12049;DHT22;6085;49.452;8.502;2022-10-03T12:28:02;18.90;99.90
12049;DHT22;6085;49.452;8.502;2022-10-03T12:32:20;19.10;99.90
12049;DHT22;6085;49.452;8.502;2022-10-03T12:36:29;19.20;99.90
12049;DHT22;6085;49.452;8.502;2022-10-03T12:40:38;19.20;99.90
12049;DHT22;6085;49.452;8.502;2022-10-03T12:44:49;18.90;99.90
12049;DHT22;6085;49.452;8.502;2022-10-03T12:48:59;18.10;99.90
12049;DHT22;6085;49.452;8.502;2022-10-03T12:53:21;17.40;99.90
12049;DHT22;6085;49.452;8.502;2022-10-03T12:57:44;17.40;99.90
12049;DHT22;6085;49.452;8.502;2022-10-03T13:02:15;17.40;99.90
12049;DHT22;6085;49.452;8.502;2022-10-03T13:06:39;17.30;99.90
12049;DHT22;6085;49.452;8.502;2022-10-03T13:10:47;17.30;99.90
12049;DHT22;6085;49.452;8.502;2022-10-03T13:19:47;16.70;99.90
12049;DHT22;6085;49.452;8.502;2022-10-03T13:23:55;16.90;99.90
12049;DHT22;6085;49.452;8.502;2022-10-03T13:28:06;17.20;99.90
12049;DHT22;6085;49.452;8.502;2022-10-03T13:32:18;17.50;99.90
12049;DHT22;6085;49.452;8.502;2022-10-03T13:36:28;18.10;99.90
12049;DHT22;6085;49.452;8.502;2022-10-03T13:40:35;18.60;99.90
12049;DHT22;6085;49.452;8.502;2022-10-03T13:44:39;18.90;99.90
12049;DHT22;6085;49.452;8.502;2022-10-03T13:48:47;18.80;99.90
12049;DHT22;6085;49.452;8.502;2022-10-03T13:52:54;18.80;99.90
12049;DHT22;6085;49.452;8.502;2022-10-03T13:57:07;18.50;99.90
12049;DHT22;6085;49.452;8.502;2022-10-03T14:01:29;18.60;99.90
12049;DHT22;6085;49.452;8.502;2022-10-03T14:05:58;19.10;99.90
12049;DHT22;6085;49.452;8.502;2022-10-03T14:10:19;19.40;99.90
12049;DHT22;6085;49.452;8.502;2022-10-03T14:14:53;19.50;99.90
12049;DHT22;6085;49.452;8.502;2022-10-03T14:19:02;19.80;99.90
12049;DHT22;6085;49.452;8.502;2022-10-03T14:23:15;20.10;99.90
12049;DHT22;6085;49.452;8.502;2022-10-03T14:27:48;20.20;99.90
12049;DHT22;6085;49.452;8.502;2022-10-03T14:31:57;19.90;99.90
12049;DHT22;6085;49.452;8.502;2022-10-03T14:36:10;19.60;99.90
12049;DHT22;6085;49.452;8.502;2022-10-03T14:40:20;19.30;99.90
12049;DHT22;6085;49.452;8.502;2022-10-03T14:44:27;19.20;99.90
12049;DHT22;6085;49.452;8.502;2022-10-03T14:48:35;19.10;99.90
12049;DHT22;6085;49.452;8.502;2022-10-03T14:52:41;18.90;99.90
12049;DHT22;6085;49.452;8.502;2022-10-03T14:56:46;18.70;99.90
12049;DHT22;6085;49.452;8.502;2022-10-03T15:00:50;18.50;99.90
12049;DHT22;6085;49.452;8.502;2022-10-03T15:05:02;18.40;99.90
12049;DHT22;6085;49.452;8.502;2022-10-03T15:09:09;18.20;99.90
12049;DHT22;6085;49.452;8.502;2022-10-03T15:13:13;18.20;99.90
12049;DHT22;6085;49.452;8.502;2022-10-03T15:17:21;18.10;99.90
12049;DHT22;6085;49.452;8.502;2022-10-03T15:21:26;17.90;99.90
12049;DHT22;6085;49.452;8.502;2022-10-03T15:25:32;18.00;99.90
12049;DHT22;6085;49.452;8.502;2022-10-03T15:29:37;17.90;99.90
12049;DHT22;6085;49.452;8.502;2022-10-03T15:33:41;17.70;99.90
12049;DHT22;6085;49.452;8.502;2022-10-03T15:37:47;17.50;99.90
12049;DHT22;6085;49.452;8.502;2022-10-03T15:41:53;17.30;99.90
12049;DHT22;6085;49.452;8.502;2022-10-03T15:45:57;17.20;99.90
12049;DHT22;6085;49.452;8.502;2022-10-03T15:50:02;16.90;99.90
12049;DHT22;6085;49.452;8.502;2022-10-03T15:54:13;16.60;99.90
12049;DHT22;6085;49.452;8.502;2022-10-03T15:58:22;16.30;99.90
12049;DHT22;6085;49.452;8.502;2022-10-03T16:02:29;16.00;99.90
12049;DHT22;6085;49.452;8.502;2022-10-03T16:06:38;15.70;99.90
12049;DHT22;6085;49.452;8.502;2022-10-03T16:10:58;15.50;99.90
12049;DHT22;6085;49.452;8.502;2022-10-03T16:15:15;15.40;99.90
12049;DHT22;6085;49.452;8.502;2022-10-03T16:19:25;15.30;99.90
12049;DHT22;6085;49.452;8.502;2022-10-03T16:23:30;15.20;99.90
12049;DHT22;6085;49.452;8.502;2022-10-03T16:27:37;15.20;99.90
12049;DHT22;6085;49.452;8.502;2022-10-03T16:31:43;15.00;99.90
12049;DHT22;6085;49.452;8.502;2022-10-03T16:35:47;14.80;99.90
12049;DHT22;6085;49.452;8.502;2022-10-03T16:39:54;14.50;99.90
12049;DHT22;6085;49.452;8.502;2022-10-03T16:44:00;14.30;99.90
12049;DHT22;6085;49.452;8.502;2022-10-03T16:48:10;14.00;99.90
12049;DHT22;6085;49.452;8.502;2022-10-03T16:52:31;13.80;99.90
12049;DHT22;6085;49.452;8.502;2022-10-03T16:56:37;13.60;99.90
12049;DHT22;6085;49.452;8.502;2022-10-03T17:00:50;13.40;99.90
12049;DHT22;6085;49.452;8.502;2022-10-03T17:04:59;13.20;99.90
12049;DHT22;6085;49.452;8.502;2022-10-03T17:09:06;13.10;99.90
12049;DHT22;6085;49.452;8.502;2022-10-03T17:13:13;13.00;99.90
12049;DHT22;6085;49.452;8.502;2022-10-03T17:17:28;12.80;99.90
12049;DHT22;6085;49.452;8.502;2022-10-03T17:21:31;12.50;99.90
12049;DHT22;6085;49.452;8.502;2022-10-03T17:25:39;12.20;99.90
12049;DHT22;6085;49.452;8.502;2022-10-03T17:29:46;12.00;99.90
12049;DHT22;6085;49.452;8.502;2022-10-03T17:33:53;11.80;99.90
12049;DHT22;6085;49.452;8.502;2022-10-03T17:38:11;11.60;99.90
12049;DHT22;6085;49.452;8.502;2022-10-03T17:42:32;11.40;99.90
12049;DHT22;6085;49.452;8.502;2022-10-03T17:46:39;11.20;99.90
12049;DHT22;6085;49.452;8.502;2022-10-03T17:50:53;11.10;99.90
12049;DHT22;6085;49.452;8.502;2022-10-03T17:54:59;10.90;99.90
12049;DHT22;6085;49.452;8.502;2022-10-03T17:59:05;10.70;99.90
12049;DHT22;6085;49.452;8.502;2022-10-03T18:03:20;10.60;99.90
12049;DHT22;6085;49.452;8.502;2022-10-03T18:07:25;10.50;99.90
12049;DHT22;6085;49.452;8.502;2022-10-03T18:11:29;10.40;99.90
12049;DHT22;6085;49.452;8.502;2022-10-03T18:15:40;10.30;99.90
12049;DHT22;6085;49.452;8.502;2022-10-03T18:19:56;10.20;99.90
12049;DHT22;6085;49.452;8.502;2022-10-03T18:24:35;10.10;99.90
12049;DHT22;6085;49.452;8.502;2022-10-03T18:28:42;10.00;99.90
12049;DHT22;6085;49.452;8.502;2022-10-03T18:32:46;9.90;99.90
12049;DHT22;6085;49.452;8.502;2022-10-03T18:36:50;9.90;99.90
12049;DHT22;6085;49.452;8.502;2022-10-03T18:40:57;9.80;99.90
12049;DHT22;6085;49.452;8.502;2022-10-03T18:45:00;9.80;99.90
12049;DHT22;6085;49.452;8.502;2022-10-03T18:49:07;9.70;99.90
12049;DHT22;6085;49.452;8.502;2022-10-03T18:53:20;9.60;99.90
12049;DHT22;6085;49.452;8.502;2022-10-03T18:57:33;9.60;99.90
12049;DHT22;6085;49.452;8.502;2022-10-03T19:01:51;9.50;99.90
12049;DHT22;6085;49.452;8.502;2022-10-03T19:05:56;9.40;99.90
12049;DHT22;6085;49.452;8.502;2022-10-03T19:10:22;9.40;99.90
12049;DHT22;6085;49.452;8.502;2022-10-03T19:14:31;9.30;99.90
12049;DHT22;6085;49.452;8.502;2022-10-03T19:18:40;9.20;99.90
12049;DHT22;6085;49.452;8.502;2022-10-03T19:22:57;9.10;99.90
12049;DHT22;6085;49.452;8.502;2022-10-03T19:27:02;9.10;99.90
12049;DHT22;6085;49.452;8.502;2022-10-03T19:31:16;9.10;99.90
12049;DHT22;6085;49.452;8.502;2022-10-03T19:35:23;9.00;99.90
12049;DHT22;6085;49.452;8.502;2022-10-03T19:39:27;9.00;99.90
12049;DHT22;6085;49.452;8.502;2022-10-03T19:43:39;8.90;99.90
12049;DHT22;6085;49.452;8.502;2022-10-03T19:47:49;8.90;99.90
12049;DHT22;6085;49.452;8.502;2022-10-03T19:52:09;8.80;99.90
12049;DHT22;6085;49.452;8.502;2022-10-03T19:56:14;8.80;99.90
12049;DHT22;6085;49.452;8.502;2022-10-03T20:00:23;8.80;99.90
12049;DHT22;6085;49.452;8.502;2022-10-03T20:04:34;8.80;99.90
12049;DHT22;6085;49.452;8.502;2022-10-03T20:08:40;8.70;99.90
12049;DHT22;6085;49.452;8.502;2022-10-03T20:12:45;8.70;99.90
12049;DHT22;6085;49.452;8.502;2022-10-03T20:16:50;8.70;99.90
12049;DHT22;6085;49.452;8.502;2022-10-03T20:20:56;8.60;99.90
12049;DHT22;6085;49.452;8.502;2022-10-03T20:24:59;8.60;99.90
12049;DHT22;6085;49.452;8.502;2022-10-03T20:29:21;8.50;99.90
12049;DHT22;6085;49.452;8.502;2022-10-03T20:33:28;8.40;99.90
12049;DHT22;6085;49.452;8.502;2022-10-03T20:37:40;8.40;99.90
12049;DHT22;6085;49.452;8.502;2022-10-03T20:41:56;8.40;99.90
12049;DHT22;6085;49.452;8.502;2022-10-03T20:46:10;8.40;99.90
12049;DHT22;6085;49.452;8.502;2022-10-03T20:50:21;8.30;99.90
12049;DHT22;6085;49.452;8.502;2022-10-03T20:54:29;8.20;99.90
12049;DHT22;6085;49.452;8.502;2022-10-03T20:58:38;8.20;99.90
12049;DHT22;6085;49.452;8.502;2022-10-03T21:02:47;8.10;99.90
12049;DHT22;6085;49.452;8.502;2022-10-03T21:06:54;8.10;99.90
12049;DHT22;6085;49.452;8.502;2022-10-03T21:11:03;8.00;99.90
12049;DHT22;6085;49.452;8.502;2022-10-03T21:15:10;8.00;99.90
12049;DHT22;6085;49.452;8.502;2022-10-03T21:19:15;7.90;99.90
12049;DHT22;6085;49.452;8.502;2022-10-03T21:23:21;7.90;99.90
12049;DHT22;6085;49.452;8.502;2022-10-03T21:27:26;8.00;99.90
12049;DHT22;6085;49.452;8.502;2022-10-03T21:31:35;7.90;99.90
12049;DHT22;6085;49.452;8.502;2022-10-03T21:35:40;7.90;99.90
12049;DHT22;6085;49.452;8.502;2022-10-03T21:39:49;7.80;99.90
12049;DHT22;6085;49.452;8.502;2022-10-03T21:43:58;7.70;99.90
12049;DHT22;6085;49.452;8.502;2022-10-03T21:48:08;7.70;99.90
12049;DHT22;6085;49.452;8.502;2022-10-03T21:52:23;7.60;99.90
12049;DHT22;6085;49.452;8.502;2022-10-03T21:56:39;7.60;99.90
12049;DHT22;6085;49.452;8.502;2022-10-03T22:01:07;7.60;99.90
12049;DHT22;6085;49.452;8.502;2022-10-03T22:05:20;7.50;99.90
12049;DHT22;6085;49.452;8.502;2022-10-03T22:09:24;7.50;99.90
12049;DHT22;6085;49.452;8.502;2022-10-03T22:13:35;7.40;99.90
12049;DHT22;6085;49.452;8.502;2022-10-03T22:17:44;7.40;99.90
12049;DHT22;6085;49.452;8.502;2022-10-03T22:22:02;7.40;99.90
12049;DHT22;6085;49.452;8.502;2022-10-03T22:26:13;7.40;99.90
12049;DHT22;6085;49.452;8.502;2022-10-03T22:30:18;7.40;99.90
12049;DHT22;6085;49.452;8.502;2022-10-03T22:34:29;7.30;99.90
12049;DHT22;6085;49.452;8.502;2022-10-03T22:38:34;7.30;99.90
12049;DHT22;6085;49.452;8.502;2022-10-03T22:42:39;7.30;99.90
12049;DHT22;6085;49.452;8.502;2022-10-03T22:46:47;7.20;99.90
12049;DHT22;6085;49.452;8.502;2022-10-03T22:50:52;7.20;99.90
12049;DHT22;6085;49.452;8.502;2022-10-03T22:54:57;7.20;99.90
12049;DHT22;6085;49.452;8.502;2022-10-03T22:59:01;7.10;99.90
12049;DHT22;6085;49.452;8.502;2022-10-03T23:03:08;7.10;99.90
12049;DHT22;6085;49.452;8.502;2022-10-03T23:07:27;7.00;99.90
12049;DHT22;6085;49.452;8.502;2022-10-03T23:11:33;7.10;99.90
12049;DHT22;6085;49.452;8.502;2022-10-03T23:15:38;7.00;99.90
12049;DHT22;6085;49.452;8.502;2022-10-03T23:19:49;7.00;99.90
12049;DHT22;6085;49.452;8.502;2022-10-03T23:24:09;6.90;99.90
12049;DHT22;6085;49.452;8.502;2022-10-03T23:28:20;6.90;99.90
12049;DHT22;6085;49.452;8.502;2022-10-03T23:32:51;6.90;99.90
12049;DHT22;6085;49.452;8.502;2022-10-03T23:36:59;6.80;99.90
12049;DHT22;6085;49.452;8.502;2022-10-03T23:41:04;6.80;99.90
12049;DHT22;6085;49.452;8.502;2022-10-03T23:45:15;6.80;99.90
12049;DHT22;6085;49.452;8.502;2022-10-03T23:49:19;6.70;99.90
12049;DHT22;6085;49.452;8.502;2022-10-03T23:53:29;6.70;99.90
12049;DHT22;6085;49.452;8.502;2022-10-03T23:57:36;6.60;99.90
